createdAt,value
2019-04-20T00:00:39.956Z,9.20
2019-04-20T00:03:01.479Z,9.10
2019-04-20T00:05:30.944Z,9.10
2019-04-20T00:08:02.796Z,9.00
2019-04-20T00:10:44.726Z,9.00
2019-04-20T00:13:16.677Z,8.90
2019-04-20T00:15:34.594Z,8.90
2019-04-20T00:18:06.447Z,8.90
2019-04-20T00:20:36.923Z,8.90
2019-04-20T00:23:07.873Z,8.70
2019-04-20T00:26:07.692Z,8.80
2019-04-20T00:28:45.743Z,8.70
2019-04-20T00:31:12.655Z,8.60
2019-04-20T00:33:42.253Z,8.60
2019-04-20T00:35:59.366Z,8.50
2019-04-20T00:38:36.534Z,8.40
2019-04-20T00:41:04.777Z,8.50
2019-04-20T00:43:34.219Z,8.50
2019-04-20T00:46:08.246Z,8.40
2019-04-20T00:48:44.298Z,8.40
2019-04-20T00:51:27.606Z,8.40
2019-04-20T00:53:39.687Z,8.30
2019-04-20T00:56:05.992Z,8.10
2019-04-20T00:58:50.764Z,8.20
2019-04-20T01:01:25.211Z,8.20
2019-04-20T01:03:52.197Z,8.10
2019-04-20T01:06:31.781Z,8.10
2019-04-20T01:08:52.914Z,8.10
2019-04-20T01:11:29.344Z,7.90
2019-04-20T01:14:00.171Z,7.80
2019-04-20T01:16:36.850Z,7.80
2019-04-20T01:18:55.618Z,7.80
2019-04-20T01:21:28.198Z,7.80
2019-04-20T01:24:00.295Z,7.80
2019-04-20T01:26:27.719Z,7.80
2019-04-20T01:29:09.029Z,7.80
2019-04-20T01:31:36.434Z,7.90
2019-04-20T01:34:08.257Z,7.80
2019-04-20T01:36:45.718Z,7.50
2019-04-20T01:39:13.596Z,7.50
2019-04-20T01:41:35.130Z,7.40
2019-04-20T01:44:05.082Z,7.40
2019-04-20T01:46:38.358Z,7.40
2019-04-20T01:49:11.472Z,7.40
2019-04-20T01:51:48.261Z,7.50
2019-04-20T01:54:28.507Z,7.50
2019-04-20T01:56:53.437Z,7.40
2019-04-20T01:59:29.548Z,7.30
2019-04-20T02:02:11.688Z,7.30
2019-04-20T02:04:41.016Z,7.30
2019-04-20T02:07:10.792Z,7.20
2019-04-20T02:09:48.461Z,7.20
2019-04-20T02:12:18.249Z,7.20
2019-04-20T02:14:48.441Z,7.10
2019-04-20T02:17:25.273Z,7.10
2019-04-20T02:20:05.097Z,7.10
2019-04-20T02:22:33.003Z,7.10
2019-04-20T02:24:46.777Z,7.00
2019-04-20T02:27:20.638Z,6.90
2019-04-20T02:30:19.178Z,6.90
2019-04-20T02:32:55.248Z,6.80
2019-04-20T02:35:36.156Z,7.00
2019-04-20T02:38:10.501Z,6.90
2019-04-20T02:40:47.396Z,6.80
2019-04-20T02:45:45.353Z,6.80
2019-04-20T02:48:11.311Z,6.80
2019-04-20T02:50:43.285Z,6.80
2019-04-20T02:55:50.043Z,6.80
2019-04-20T02:58:18.747Z,6.70
2019-04-20T03:00:39.625Z,6.70
2019-04-20T03:03:03.495Z,6.60
2019-04-20T03:05:31.914Z,6.50
2019-04-20T03:08:08.967Z,6.50
2019-04-20T03:10:50.592Z,6.40
2019-04-20T03:13:15.913Z,6.40
2019-04-20T03:15:41.865Z,6.40
2019-04-20T03:18:17.623Z,6.30
2019-04-20T03:20:46.532Z,6.20
2019-04-20T03:26:12.794Z,6.20
2019-04-20T03:29:01.097Z,6.20
2019-04-20T03:37:28.140Z,6.10
2019-04-20T03:39:46.755Z,6.00
2019-04-20T03:42:02.205Z,6.00
2019-04-20T03:44:34.182Z,6.00
2019-04-20T03:47:08.228Z,5.80
2019-04-20T03:50:12.075Z,5.90
2019-04-20T03:52:27.768Z,5.80
2019-04-20T03:55:12.859Z,5.80
2019-04-20T03:58:01.216Z,5.80
2019-04-20T04:00:29.091Z,5.70
2019-04-20T04:03:26.212Z,5.60
2019-04-20T04:05:40.815Z,5.60
2019-04-20T04:08:07.481Z,5.70
2019-04-20T04:10:47.895Z,5.70
2019-04-20T04:13:14.820Z,5.70
2019-04-20T04:15:52.002Z,5.70
2019-04-20T04:18:26.199Z,5.70
2019-04-20T04:20:55.318Z,5.60
2019-04-20T04:23:36.678Z,5.60
2019-04-20T04:28:41.139Z,5.60
2019-04-20T04:31:12.181Z,5.60
2019-04-20T04:33:58.131Z,5.50
2019-04-20T04:36:15.480Z,5.50
2019-04-20T04:38:51.742Z,5.40
2019-04-20T04:41:32.310Z,5.40
2019-04-20T04:43:49.823Z,5.40
2019-04-20T04:46:01.691Z,5.30
2019-04-20T04:48:35.576Z,5.20
2019-04-20T04:51:11.315Z,5.30
2019-04-20T04:53:45.235Z,5.40
2019-04-20T04:56:09.468Z,5.50
2019-04-20T04:58:36.259Z,5.50
2019-04-20T05:01:11.756Z,5.50
2019-04-20T05:04:02.904Z,5.50
2019-04-20T05:06:26.417Z,5.50
2019-04-20T05:08:45.465Z,5.60
2019-04-20T05:11:13.037Z,5.60
2019-04-20T05:13:48.902Z,5.60
2019-04-20T05:16:27.984Z,5.50
2019-04-20T05:19:11.931Z,5.50
2019-04-20T05:21:39.822Z,5.60
2019-04-20T05:24:30.584Z,5.50
2019-04-20T05:27:11.705Z,5.70
2019-04-20T05:29:24.921Z,5.80
2019-04-20T05:31:56.249Z,5.90
2019-04-20T05:34:45.122Z,5.90
2019-04-20T05:37:20.830Z,6.10
2019-04-20T05:39:47.430Z,6.20
2019-04-20T05:42:22.100Z,6.20
2019-04-20T05:44:52.790Z,6.20
2019-04-20T05:47:16.919Z,6.30
2019-04-20T05:49:45.418Z,6.50
2019-04-20T05:54:51.121Z,6.70
2019-04-20T05:57:25.229Z,6.70
2019-04-20T05:59:55.710Z,6.80
2019-04-20T06:02:29.434Z,6.80
2019-04-20T06:05:05.652Z,6.90
2019-04-20T06:10:01.546Z,7.20
2019-04-20T06:12:34.408Z,7.30
2019-04-20T06:15:04.519Z,7.50
2019-04-20T06:18:00.995Z,7.50
2019-04-20T06:20:36.695Z,7.70
2019-04-20T06:23:27.266Z,7.70
2019-04-20T06:26:13.461Z,7.80
2019-04-20T06:28:28.077Z,7.90
2019-04-20T06:30:52.604Z,8.00
2019-04-20T06:34:19.960Z,8.20
2019-04-20T06:36:56.072Z,8.40
2019-04-20T06:39:16.215Z,8.60
2019-04-20T06:42:02.246Z,8.60
2019-04-20T06:44:14.784Z,8.70
2019-04-20T06:46:53.654Z,8.90
2019-04-20T06:49:22.906Z,9.00
2019-04-20T06:51:55.351Z,9.10
2019-04-20T06:54:38.424Z,9.20
2019-04-20T06:57:09.870Z,9.30
2019-04-20T07:00:12.786Z,9.50
2019-04-20T07:02:28.388Z,9.60
2019-04-20T07:04:47.509Z,9.70
2019-04-20T07:12:14.336Z,10.10
2019-04-20T07:14:40.516Z,10.20
2019-04-20T07:17:33.340Z,10.40
2019-04-20T07:19:50.033Z,10.50
2019-04-20T07:22:46.491Z,10.60
2019-04-20T07:25:14.318Z,10.80
2019-04-20T07:27:48.519Z,11.00
2019-04-20T07:30:33.438Z,11.30
2019-04-20T07:32:54.918Z,11.50
2019-04-20T07:35:19.760Z,11.70
2019-04-20T07:40:20.373Z,11.90
2019-04-20T07:43:02.893Z,12.10
2019-04-20T07:48:02.795Z,12.50
2019-04-20T07:50:26.501Z,12.70
2019-04-20T07:52:51.145Z,12.90
2019-04-20T07:55:40.014Z,13.20
2019-04-20T07:57:57.974Z,13.40
2019-04-20T08:00:44.488Z,13.60
2019-04-20T08:03:28.398Z,13.70
2019-04-20T08:05:51.233Z,14.00
2019-04-20T08:08:30.449Z,14.20
2019-04-20T08:11:02.614Z,14.50
2019-04-20T08:13:40.388Z,14.70
2019-04-20T08:16:06.378Z,14.80
2019-04-20T08:18:42.856Z,15.00
2019-04-20T08:21:11.393Z,15.20
2019-04-20T08:23:38.838Z,15.40
2019-04-20T08:26:01.813Z,15.80
2019-04-20T08:28:39.445Z,15.90
2019-04-20T08:31:22.954Z,16.10
2019-04-20T08:34:07.732Z,16.40
2019-04-20T08:36:33.135Z,16.50
2019-04-20T08:39:24.472Z,16.70
2019-04-20T08:41:30.150Z,16.90
2019-04-20T08:44:31.103Z,17.00
2019-04-20T08:46:47.628Z,17.20
2019-04-20T08:49:13.175Z,17.30
2019-04-20T08:51:53.783Z,17.50
2019-04-20T08:54:06.862Z,17.70
2019-04-20T08:56:34.872Z,17.80
2019-04-20T08:58:53.127Z,18.10
2019-04-20T09:01:27.178Z,18.20
2019-04-20T09:04:02.072Z,18.40
2019-04-20T09:06:41.496Z,18.60
2019-04-20T09:09:29.286Z,18.60
2019-04-20T09:11:49.247Z,18.60
2019-04-20T09:14:03.902Z,18.80
2019-04-20T09:16:38.884Z,18.90
2019-04-20T09:19:07.880Z,19.10
2019-04-20T09:21:42.754Z,19.20
2019-04-20T09:24:30.571Z,19.40
2019-04-20T09:26:54.280Z,19.50
2019-04-20T09:29:23.605Z,19.70
2019-04-20T09:31:53.014Z,19.90
2019-04-20T09:34:42.803Z,20.10
2019-04-20T09:37:21.747Z,20.10
2019-04-20T09:39:44.961Z,20.20
2019-04-20T09:42:14.775Z,20.40
2019-04-20T09:44:49.097Z,20.70
2019-04-20T09:47:23.336Z,20.80
2019-04-20T09:49:58.065Z,21.20
2019-04-20T09:52:33.538Z,21.40
2019-04-20T09:55:03.135Z,21.70
2019-04-20T09:57:38.678Z,21.70
2019-04-20T10:00:05.592Z,21.90
2019-04-20T10:02:29.499Z,22.20
2019-04-20T10:04:57.720Z,22.70
2019-04-20T10:07:33.524Z,23.40
2019-04-20T10:10:14.883Z,24.40
2019-04-20T10:12:35.674Z,24.50
2019-04-20T10:15:14.059Z,25.40
2019-04-20T10:17:38.861Z,25.70
2019-04-20T10:20:17.210Z,25.50
2019-04-20T10:22:40.556Z,26.20
2019-04-20T10:25:10.814Z,26.20
2019-04-20T10:27:42.349Z,26.40
2019-04-20T10:30:12.741Z,26.70
2019-04-20T10:32:45.611Z,27.00
2019-04-20T10:35:16.569Z,26.90
2019-04-20T10:37:47.233Z,27.10
2019-04-20T10:40:34.439Z,27.30
2019-04-20T10:42:50.154Z,27.40
2019-04-20T10:45:21.262Z,27.60
2019-04-20T10:47:52.813Z,27.60
2019-04-20T10:50:22.998Z,27.70
2019-04-20T10:52:52.317Z,28.10
2019-04-20T10:55:21.725Z,29.00
2019-04-20T10:57:51.402Z,28.90
2019-04-20T11:00:23.973Z,28.90
2019-04-20T11:02:53.338Z,28.70
2019-04-20T11:05:22.374Z,29.00
2019-04-20T11:07:52.549Z,28.80
2019-04-20T11:10:27.409Z,28.80
2019-04-20T11:12:53.219Z,29.00
2019-04-20T11:15:21.833Z,28.90
2019-04-20T11:17:51.450Z,29.20
2019-04-20T11:20:21.449Z,29.40
2019-04-20T11:22:51.010Z,29.60
2019-04-20T11:25:19.951Z,30.00
2019-04-20T11:27:50.090Z,29.80
2019-04-20T11:30:20.407Z,29.40
2019-04-20T11:32:51.916Z,29.90
2019-04-20T11:35:27.806Z,30.00
2019-04-20T11:37:53.252Z,30.10
2019-04-20T11:40:23.277Z,30.30
2019-04-20T11:42:53.370Z,30.00
2019-04-20T11:45:24.731Z,30.20
2019-04-20T11:47:54.225Z,30.40
2019-04-20T11:50:25.309Z,30.40
2019-04-20T11:53:26.535Z,30.40
2019-04-20T11:56:06.123Z,30.30
2019-04-20T11:58:33.643Z,30.60
2019-04-20T12:01:18.744Z,30.80
2019-04-20T12:03:57.843Z,31.10
2019-04-20T12:06:17.042Z,31.10
2019-04-20T12:08:47.085Z,30.40
2019-04-20T12:11:27.797Z,30.10
2019-04-20T12:13:48.867Z,29.90
2019-04-20T12:16:19.703Z,30.70
2019-04-20T12:18:50.206Z,31.00
2019-04-20T12:21:20.974Z,31.20
2019-04-20T12:23:51.996Z,31.20
2019-04-20T12:26:22.628Z,31.40
2019-04-20T12:28:53.709Z,31.60
2019-04-20T12:31:27.187Z,31.60
2019-04-20T12:33:54.842Z,31.70
2019-04-20T12:36:25.957Z,31.60
2019-04-20T12:38:57.081Z,31.90
2019-04-20T12:41:37.606Z,30.90
2019-04-20T12:43:57.775Z,30.90
2019-04-20T12:46:28.095Z,30.90
2019-04-20T12:48:58.069Z,31.00
2019-04-20T12:51:33.947Z,31.40
2019-04-20T12:53:58.546Z,31.70
2019-04-20T12:56:28.931Z,31.10
2019-04-20T12:58:58.238Z,30.50
2019-04-20T13:01:33.329Z,30.70
2019-04-20T13:04:07.065Z,30.30
2019-04-20T13:06:37.291Z,30.30
2019-04-20T13:09:10.762Z,30.40
2019-04-20T13:11:52.919Z,29.50
2019-04-20T13:14:33.152Z,29.80
2019-04-20T13:17:02.464Z,30.10
2019-04-20T13:19:35.155Z,30.40
2019-04-20T13:22:05.227Z,30.20
2019-04-20T13:24:34.841Z,29.70
2019-04-20T13:27:04.823Z,29.90
2019-04-20T13:29:35.111Z,30.00
2019-04-20T13:32:05.482Z,29.70
2019-04-20T13:34:36.093Z,29.50
2019-04-20T13:37:06.415Z,29.50
2019-04-20T13:39:35.845Z,29.70
2019-04-20T13:42:12.469Z,29.60
2019-04-20T13:44:36.961Z,29.70
2019-04-20T13:47:07.244Z,29.80
2019-04-20T13:49:36.851Z,30.20
2019-04-20T13:52:06.649Z,30.20
2019-04-20T13:54:36.244Z,30.00
2019-04-20T13:57:08.028Z,29.30
2019-04-20T13:59:39.945Z,29.10
2019-04-20T14:02:14.988Z,29.30
2019-04-20T14:04:46.532Z,29.70
2019-04-20T14:07:17.045Z,29.70
2019-04-20T14:09:47.781Z,29.90
2019-04-20T14:12:25.126Z,29.90
2019-04-20T14:14:48.935Z,30.10
2019-04-20T14:17:19.186Z,29.70
2019-04-20T14:19:49.202Z,29.60
2019-04-20T14:22:20.818Z,29.80
2019-04-20T14:24:51.075Z,29.50
2019-04-20T14:27:21.257Z,29.40
2019-04-20T14:29:52.927Z,29.80
2019-04-20T14:32:22.855Z,30.00
2019-04-20T14:34:53.228Z,29.30
2019-04-20T14:37:22.757Z,29.50
2019-04-20T14:39:52.362Z,29.90
2019-04-20T14:42:30.449Z,30.20
2019-04-20T14:44:52.102Z,30.40
2019-04-20T14:47:21.721Z,30.70
2019-04-20T14:49:51.067Z,30.90
2019-04-20T14:52:21.669Z,31.00
2019-04-20T14:54:51.212Z,30.80
2019-04-20T14:57:21.405Z,30.60
2019-04-20T14:59:53.695Z,30.30
2019-04-20T15:02:23.872Z,29.50
2019-04-20T15:04:54.819Z,29.60
2019-04-20T15:07:24.646Z,29.70
2019-04-20T15:09:55.091Z,29.80
2019-04-20T15:12:37.875Z,29.30
2019-04-20T15:14:56.575Z,29.00
2019-04-20T15:17:27.845Z,29.40
2019-04-20T15:19:59.251Z,29.40
2019-04-20T15:22:33.790Z,29.00
2019-04-20T15:25:05.331Z,29.20
2019-04-20T15:27:35.228Z,29.40
2019-04-20T15:30:14.023Z,29.40
2019-04-20T15:32:52.309Z,29.20
2019-04-20T15:35:24.685Z,28.90
2019-04-20T15:37:55.315Z,29.30
2019-04-20T15:40:24.793Z,28.80
2019-04-20T15:43:01.065Z,28.00
2019-04-20T15:45:25.396Z,28.00
2019-04-20T15:47:56.205Z,27.90
2019-04-20T15:50:25.781Z,28.10
2019-04-20T15:52:57.372Z,28.10
2019-04-20T15:55:32.057Z,27.20
2019-04-20T15:57:57.633Z,26.60
2019-04-20T16:00:26.760Z,26.60
2019-04-20T16:03:03.395Z,26.40
2019-04-20T16:05:40.919Z,26.50
2019-04-20T16:08:24.084Z,25.90
2019-04-20T16:10:54.864Z,25.60
2019-04-20T16:13:32.014Z,25.30
2019-04-20T16:15:56.122Z,25.10
2019-04-20T16:18:27.182Z,25.00
2019-04-20T16:21:05.406Z,24.70
2019-04-20T16:23:30.475Z,24.40
2019-04-20T16:26:05.808Z,24.40
2019-04-20T16:28:35.576Z,24.10
2019-04-20T16:31:09.665Z,23.90
2019-04-20T16:33:36.733Z,23.70
2019-04-20T16:36:06.304Z,23.60
2019-04-20T16:38:35.705Z,23.60
2019-04-20T16:41:06.599Z,23.50
2019-04-20T16:43:41.007Z,23.50
2019-04-20T16:46:07.291Z,23.50
2019-04-20T16:48:37.917Z,23.40
2019-04-20T16:51:07.463Z,23.30
2019-04-20T16:53:39.389Z,23.20
2019-04-20T16:56:08.615Z,23.10
2019-04-20T16:58:38.092Z,23.00
2019-04-20T17:01:07.755Z,23.00
2019-04-20T17:03:49.207Z,22.90
2019-04-20T17:06:08.619Z,22.80
2019-04-20T17:08:41.080Z,22.80
2019-04-20T17:11:09.809Z,22.80
2019-04-20T17:13:43.826Z,22.70
2019-04-20T17:16:10.067Z,22.70
2019-04-20T17:18:39.539Z,22.60
2019-04-20T17:21:16.537Z,22.60
2019-04-20T17:23:42.177Z,22.50
2019-04-20T17:26:12.687Z,22.40
2019-04-20T17:29:02.163Z,22.20
2019-04-20T17:31:39.815Z,22.10
2019-04-20T17:34:26.957Z,22.00
2019-04-20T17:36:42.125Z,21.90
2019-04-20T17:39:15.455Z,21.80
2019-04-20T17:42:00.493Z,21.60
2019-04-20T17:44:28.754Z,21.50
2019-04-20T17:46:56.853Z,21.40
2019-04-20T17:49:31.559Z,21.30
2019-04-20T17:52:11.948Z,21.20
2019-04-20T17:54:22.779Z,21.10
2019-04-20T17:56:52.597Z,20.90
2019-04-20T17:59:22.328Z,20.80
2019-04-20T18:02:06.853Z,20.70
2019-04-20T18:04:54.438Z,20.60
2019-04-20T18:07:18.330Z,20.40
2019-04-20T18:09:53.380Z,20.30
2019-04-20T18:12:08.514Z,20.20
2019-04-20T18:14:52.018Z,20.00
2019-04-20T18:17:17.822Z,19.80
2019-04-20T18:19:45.036Z,19.80
2019-04-20T18:22:15.846Z,19.50
2019-04-20T18:25:07.622Z,19.30
2019-04-20T18:27:37.282Z,19.10
2019-04-20T18:30:07.031Z,18.90
2019-04-20T18:32:21.142Z,18.70
2019-04-20T18:34:58.453Z,18.60
2019-04-20T18:37:23.970Z,18.40
2019-04-20T18:39:59.615Z,18.30
2019-04-20T18:42:32.394Z,18.00
2019-04-20T18:45:12.577Z,17.70
2019-04-20T18:47:45.236Z,17.50
2019-04-20T18:50:09.495Z,17.50
2019-04-20T18:52:31.538Z,17.30
2019-04-20T18:55:01.655Z,17.10
2019-04-20T18:57:33.218Z,17.10
2019-04-20T19:00:05.949Z,16.80
2019-04-20T19:02:42.131Z,16.70
2019-04-20T19:05:08.895Z,16.70
2019-04-20T19:07:46.556Z,16.60
2019-04-20T19:10:18.593Z,16.40
2019-04-20T19:12:55.272Z,16.30
2019-04-20T19:15:43.852Z,16.20
2019-04-20T19:18:27.132Z,16.10
2019-04-20T19:20:48.767Z,15.90
2019-04-20T19:23:18.848Z,15.80
2019-04-20T19:25:48.311Z,15.70
2019-04-20T19:28:22.744Z,15.50
2019-04-20T19:31:01.818Z,15.40
2019-04-20T19:33:35.747Z,15.40
2019-04-20T19:36:04.805Z,15.20
2019-04-20T19:38:30.247Z,15.10
2019-04-20T19:41:01.704Z,14.90
2019-04-20T19:43:33.547Z,14.80
2019-04-20T19:46:35.322Z,14.70
2019-04-20T19:48:40.727Z,14.60
2019-04-20T19:51:24.054Z,14.50
2019-04-20T19:53:55.061Z,14.50
2019-04-20T19:56:16.670Z,14.40
2019-04-20T19:58:47.252Z,14.30
2019-04-20T20:01:06.640Z,14.20
2019-04-20T20:03:37.642Z,14.10
2019-04-20T20:06:12.007Z,13.90
2019-04-20T20:08:40.499Z,13.70
2019-04-20T20:11:16.896Z,13.70
2019-04-20T20:13:46.198Z,13.70
2019-04-20T20:16:20.506Z,13.60
2019-04-20T20:18:53.337Z,13.50
2019-04-20T20:21:23.895Z,13.50
2019-04-20T20:23:45.936Z,13.40
2019-04-20T20:26:23.055Z,13.30
2019-04-20T20:29:35.866Z,13.20
2019-04-20T20:32:14.622Z,13.00
2019-04-20T20:34:37.821Z,13.10
2019-04-20T20:37:08.778Z,13.00
2019-04-20T20:39:36.427Z,13.00
2019-04-20T20:42:15.587Z,12.90
2019-04-20T20:44:44.091Z,12.70
2019-04-20T20:47:31.313Z,12.60
2019-04-20T20:50:03.623Z,12.60
2019-04-20T20:52:27.307Z,12.40
2019-04-20T20:54:49.547Z,12.40
2019-04-20T20:57:15.370Z,12.40
2019-04-20T20:59:54.395Z,12.30
2019-04-20T21:02:20.635Z,12.30
2019-04-20T21:05:05.873Z,12.10
2019-04-20T21:07:36.498Z,12.10
2019-04-20T21:10:06.349Z,12.00
2019-04-20T21:12:43.615Z,11.90
2019-04-20T21:15:13.494Z,11.80
2019-04-20T21:18:06.685Z,11.70
2019-04-20T21:20:27.595Z,11.70
2019-04-20T21:22:59.012Z,11.70
2019-04-20T21:25:26.365Z,11.60
2019-04-20T21:27:55.026Z,11.50
2019-04-20T21:30:32.991Z,11.30
2019-04-20T21:32:59.116Z,11.30
2019-04-20T21:35:32.461Z,11.20
2019-04-20T21:38:05.701Z,11.20
2019-04-20T21:40:36.312Z,11.10
2019-04-20T21:43:05.258Z,11.10
2019-04-20T21:45:35.353Z,11.00
2019-04-20T21:48:10.010Z,11.00
2019-04-20T21:50:54.602Z,10.90
2019-04-20T21:53:11.854Z,10.80
2019-04-20T21:55:34.563Z,10.70
2019-04-20T21:58:06.586Z,10.70
2019-04-20T22:01:07.255Z,10.70
2019-04-20T22:03:24.837Z,10.50
2019-04-20T22:06:04.502Z,10.40
2019-04-20T22:08:34.634Z,10.30
2019-04-20T22:11:05.800Z,10.20
2019-04-20T22:13:38.878Z,10.10
2019-04-20T22:16:10.579Z,10.10
2019-04-20T22:18:48.578Z,10.00
2019-04-20T22:21:17.462Z,10.00
2019-04-20T22:23:57.145Z,10.10
2019-04-20T22:26:24.633Z,10.10
2019-04-20T22:28:42.421Z,10.00
2019-04-20T22:31:12.026Z,10.00
2019-04-20T22:33:47.282Z,10.00
2019-04-20T22:36:18.074Z,9.90
2019-04-20T22:39:07.574Z,9.80
2019-04-20T22:41:40.705Z,9.70
2019-04-20T22:44:15.404Z,9.70
2019-04-20T22:46:43.766Z,9.70
2019-04-20T22:49:26.548Z,9.60
2019-04-20T22:51:53.146Z,9.60
2019-04-20T22:54:34.559Z,9.70
2019-04-20T22:56:57.582Z,9.60
2019-04-20T22:59:22.399Z,9.50
2019-04-20T23:01:53.448Z,9.40
2019-04-20T23:04:19.134Z,9.50
2019-04-20T23:06:51.633Z,9.50
2019-04-20T23:09:20.624Z,9.40
2019-04-20T23:11:55.367Z,9.30
2019-04-20T23:14:22.377Z,9.10
2019-04-20T23:16:53.938Z,9.00
2019-04-20T23:19:34.465Z,9.10
2019-04-20T23:21:58.858Z,9.00
2019-04-20T23:24:24.044Z,8.80
2019-04-20T23:26:53.360Z,8.90
2019-04-20T23:29:27.245Z,8.90
2019-04-20T23:31:59.625Z,9.00
2019-04-20T23:34:33.850Z,9.00
2019-04-20T23:37:03.009Z,8.80
2019-04-20T23:39:37.345Z,8.70
2019-04-20T23:42:07.570Z,8.50
2019-04-20T23:44:40.114Z,8.40
2019-04-20T23:47:15.593Z,8.40
2019-04-20T23:50:05.999Z,8.30
2019-04-20T23:52:36.553Z,8.10
2019-04-20T23:54:54.283Z,8.10
2019-04-20T23:57:17.877Z,8.00
2019-04-20T23:59:48.678Z,8.10
